Time;durP1;ratioP1;P1;durP2;ratioP2;P2;SDS_P1;SDS_P2;PMS_P1;PMS_P2;Temp;Humidity;BMP_temperature;BMP_pressure;BME280_temperature;BME280_humidity;BME280_pressure;Samples;Min_cycle;Max_cycle;Signal;HPM_P1;HPM_P2
2021/08/17 00:00:06;;;;;;;26.57;11.20;;;12.00;90.70;;;;;;5096967;28;20039;-84
2021/08/17 00:02:32;;;;;;;27.40;12.97;;;12.00;90.80;;;;;;5095806;28;20032;-77
2021/08/17 00:04:57;;;;;;;24.97;11.60;;;12.00;90.90;;;;;;5112837;28;20051;-77
2021/08/17 00:07:26;;;;;;;30.20;13.33;;;12.00;90.90;;;;;;5114223;28;20326;-77
2021/08/17 00:09:53;;;;;;;30.67;14.70;;;12.00;91.00;;;;;;5098730;28;20059;-76
2021/08/17 00:12:18;;;;;;;35.17;15.67;;;12.10;91.10;;;;;;5114218;28;20467;-77
2021/08/17 00:14:44;;;;;;;37.57;16.50;;;12.10;91.20;;;;;;5085590;28;20032;-77
2021/08/17 00:17:11;;;;;;;38.30;17.40;;;12.00;91.20;;;;;;5094911;28;20036;-79
2021/08/17 00:19:40;;;;;;;36.87;17.73;;;12.10;91.30;;;;;;5115755;28;20028;-78
2021/08/17 00:22:09;;;;;;;42.20;18.60;;;12.10;91.40;;;;;;5114156;28;20034;-83
2021/08/17 00:24:35;;;;;;;41.43;17.83;;;12.10;91.40;;;;;;5114020;28;20027;-78
2021/08/17 00:27:01;;;;;;;47.27;20.87;;;12.10;91.40;;;;;;5113939;28;20026;-78
2021/08/17 00:29:27;;;;;;;46.43;20.17;;;12.10;91.50;;;;;;5114822;28;20023;-79
2021/08/17 00:31:52;;;;;;;42.53;19.73;;;12.10;91.50;;;;;;5114070;28;20395;-77
2021/08/17 00:34:18;;;;;;;41.93;19.30;;;12.10;91.60;;;;;;5093411;28;20035;-77
2021/08/17 00:36:43;;;;;;;49.43;22.83;;;12.20;91.60;;;;;;5094863;28;20047;-77
2021/08/17 00:39:09;;;;;;;57.20;23.70;;;12.20;91.70;;;;;;5093373;28;20024;-82
2021/08/17 00:41:38;;;;;;;52.43;22.40;;;12.10;91.70;;;;;;5091841;28;20031;-77
2021/08/17 00:44:05;;;;;;;50.30;22.37;;;12.10;91.80;;;;;;5096713;28;20466;-77
2021/08/17 00:46:31;;;;;;;56.00;24.47;;;12.10;91.90;;;;;;5114241;28;20448;-79
2021/08/17 00:48:57;;;;;;;58.00;25.20;;;12.10;91.90;;;;;;5096325;28;20024;-78
2021/08/17 00:51:23;;;;;;;56.47;25.37;;;12.20;92.00;;;;;;5113492;28;20039;-78
2021/08/17 00:53:51;;;;;;;55.83;26.07;;;12.20;92.00;;;;;;5112912;28;20051;-77
2021/08/17 00:56:17;;;;;;;57.20;25.57;;;12.20;92.10;;;;;;5112543;28;20035;-77
2021/08/17 00:58:43;;;;;;;62.73;26.00;;;12.10;92.10;;;;;;5096014;28;20034;-78
2021/08/17 01:01:09;;;;;;;65.73;27.27;;;12.20;92.20;;;;;;5113412;28;20084;-78
2021/08/17 01:03:38;;;;;;;63.47;27.77;;;12.20;92.20;;;;;;5112878;28;20046;-78
2021/08/17 01:06:05;;;;;;;54.97;25.53;;;12.20;92.20;;;;;;5112445;28;20071;-77
2021/08/17 01:08:30;;;;;;;59.00;27.03;;;12.20;92.20;;;;;;5114298;28;20475;-77
2021/08/17 01:10:57;;;;;;;62.73;26.77;;;12.20;92.20;;;;;;5114616;28;20028;-78
2021/08/17 01:13:24;;;;;;;63.00;28.83;;;12.20;92.30;;;;;;5112426;28;20023;-78
2021/08/17 01:15:51;;;;;;;61.70;26.97;;;12.20;92.30;;;;;;5114327;28;20167;-77
2021/08/17 01:18:17;;;;;;;62.40;28.07;;;12.20;92.30;;;;;;5112330;28;20034;-84
2021/08/17 01:20:48;;;;;;;68.93;29.20;;;12.20;92.40;;;;;;5112827;28;20378;-78
2021/08/17 01:23:18;;;;;;;67.20;27.27;;;12.20;92.40;;;;;;5095492;28;20036;-83
2021/08/17 01:25:43;;;;;;;65.47;29.10;;;12.20;92.40;;;;;;5113615;28;20028;-77
2021/08/17 01:28:09;;;;;;;68.20;29.53;;;12.20;92.50;;;;;;5112328;28;20123;-77
2021/08/17 01:30:35;;;;;;;67.50;29.87;;;12.20;92.50;;;;;;5112529;28;20391;-76
2021/08/17 01:33:00;;;;;;;67.07;29.53;;;12.20;92.50;;;;;;5112957;28;20028;-78
2021/08/17 01:35:27;;;;;;;62.37;27.90;;;12.20;92.50;;;;;;5111885;28;20042;-77
2021/08/17 01:37:52;;;;;;;65.90;29.67;;;12.30;92.50;;;;;;5113704;28;20069;-76
2021/08/17 01:40:18;;;;;;;67.67;29.30;;;12.30;92.50;;;;;;5112200;28;20063;-83
2021/08/17 01:42:45;;;;;;;79.40;32.23;;;12.20;92.50;;;;;;5112617;28;20028;-77
2021/08/17 01:45:13;;;;;;;78.37;31.37;;;12.20;92.60;;;;;;5112298;28;20038;-77
2021/08/17 01:47:39;;;;;;;67.53;28.83;;;12.20;92.60;;;;;;5113603;28;20020;-76
2021/08/17 01:50:05;;;;;;;73.53;30.13;;;12.20;92.70;;;;;;5112677;28;20080;-76
2021/08/17 01:52:31;;;;;;;69.07;30.03;;;12.20;92.70;;;;;;5095232;28;20028;-78
2021/08/17 01:54:57;;;;;;;77.97;32.77;;;12.20;92.70;;;;;;5113243;28;20035;-77
2021/08/17 01:57:23;;;;;;;63.23;29.17;;;12.20;92.70;;;;;;5112176;28;20080;-77
2021/08/17 01:59:52;;;;;;;66.00;29.33;;;12.20;92.80;;;;;;5112562;28;20024;-77
2021/08/17 02:02:18;;;;;;;69.77;29.07;;;12.20;92.80;;;;;;5095194;28;20375;-84
2021/08/17 02:04:43;;;;;;;67.60;28.40;;;12.20;92.80;;;;;;5077199;28;20062;-77
2021/08/17 02:07:09;;;;;;;63.37;27.70;;;12.20;92.80;;;;;;5078393;28;20035;-77
2021/08/17 02:09:35;;;;;;;67.17;29.27;;;12.20;92.80;;;;;;5112814;28;20024;-76
2021/08/17 02:12:00;;;;;;;66.40;27.57;;;12.20;92.80;;;;;;5111684;28;20110;-77
2021/08/17 02:14:26;;;;;;;65.80;28.47;;;12.20;92.80;;;;;;5077591;28;20027;-77
2021/08/17 02:16:52;;;;;;;61.37;27.83;;;12.20;92.80;;;;;;5095164;28;20077;-77
2021/08/17 02:19:18;;;;;;;62.43;27.20;;;12.20;93.00;;;;;;5113065;28;20433;-77
2021/08/17 02:21:44;;;;;;;65.80;28.00;;;12.20;92.80;;;;;;5112599;28;20442;-77
2021/08/17 02:24:10;;;;;;;66.63;28.07;;;12.20;92.90;;;;;;5112847;28;20099;-77
2021/08/17 02:26:36;;;;;;;56.13;26.53;;;12.20;92.90;;;;;;5112973;28;20051;-76
2021/08/17 02:29:01;;;;;;;67.70;29.77;;;12.20;92.90;;;;;;5110857;28;20473;-76
2021/08/17 02:31:27;;;;;;;69.53;29.87;;;12.20;92.90;;;;;;5111123;28;20428;-78
2021/08/17 02:33:53;;;;;;;61.87;28.17;;;12.20;92.90;;;;;;5110348;28;20143;-78
2021/08/17 02:36:18;;;;;;;66.27;29.13;;;12.10;92.90;;;;;;5093771;28;20039;-77
2021/08/17 02:38:44;;;;;;;59.70;27.37;;;12.10;92.90;;;;;;5093541;28;20668;-77
2021/08/17 02:41:09;;;;;;;68.03;28.03;;;12.10;93.00;;;;;;5112607;28;20118;-77
2021/08/17 02:43:35;;;;;;;66.93;28.80;;;12.10;93.00;;;;;;5112457;28;20417;-81
2021/08/17 02:46:01;;;;;;;64.90;28.03;;;12.10;93.00;;;;;;5061584;28;20044;-78
2021/08/17 02:48:26;;;;;;;64.60;28.20;;;12.10;93.00;;;;;;5092854;28;20116;-77
2021/08/17 02:50:52;;;;;;;69.57;29.50;;;12.10;93.10;;;;;;5091151;28;20052;-77
2021/08/17 02:53:18;;;;;;;72.57;29.43;;;12.10;93.20;;;;;;5108778;28;20412;-77
2021/08/17 02:55:44;;;;;;;63.43;28.23;;;12.20;93.20;;;;;;5109257;28;20096;-76
2021/08/17 02:58:10;;;;;;;63.13;28.53;;;12.20;93.20;;;;;;5113768;28;20020;-76
2021/08/17 03:00:40;;;;;;;61.23;27.60;;;12.30;93.20;;;;;;5112577;28;20034;-77
2021/08/17 03:03:06;;;;;;;60.40;27.83;;;12.30;93.20;;;;;;5096214;28;20152;-76
2021/08/17 03:05:32;;;;;;;64.53;28.90;;;12.40;93.20;;;;;;5115210;28;20082;-77
2021/08/17 03:08:00;;;;;;;63.33;27.23;;;12.40;93.20;;;;;;5116570;28;20062;-76
2021/08/17 03:10:27;;;;;;;65.30;27.03;;;12.40;93.20;;;;;;5117242;28;20467;-77
2021/08/17 03:12:52;;;;;;;57.03;25.27;;;12.40;93.20;;;;;;5116750;27;20088;-80
2021/08/17 03:15:19;;;;;;;62.70;27.13;;;12.40;93.30;;;;;;5116458;28;20578;-75
2021/08/17 03:17:45;;;;;;;67.97;28.10;;;12.30;93.30;;;;;;5116952;28;20032;-76
2021/08/17 03:20:12;;;;;;;68.37;28.87;;;12.30;93.30;;;;;;5115596;28;20482;-76
2021/08/17 03:22:38;;;;;;;66.40;27.33;;;12.30;93.30;;;;;;5115273;28;20024;-77
2021/08/17 03:25:05;;;;;;;70.03;29.17;;;12.40;93.40;;;;;;5117036;28;20032;-76
2021/08/17 03:27:32;;;;;;;69.63;29.50;;;12.40;93.40;;;;;;5115626;28;20028;-83
2021/08/17 03:29:57;;;;;;;58.47;25.43;;;12.40;93.40;;;;;;5115783;28;20036;-77
2021/08/17 03:32:24;;;;;;;64.67;28.40;;;12.40;93.40;;;;;;5116800;28;20367;-78
2021/08/17 03:34:50;;;;;;;60.13;26.40;;;12.50;93.40;;;;;;5115035;28;20118;-76
2021/08/17 03:37:16;;;;;;;62.73;26.83;;;12.50;93.40;;;;;;5115859;28;20119;-77
2021/08/17 03:39:42;;;;;;;66.53;26.13;;;12.60;93.40;;;;;;5080626;28;20115;-76
2021/08/17 03:42:07;;;;;;;63.00;27.17;;;12.60;93.40;;;;;;5115553;28;20469;-76
2021/08/17 03:44:33;;;;;;;62.77;26.70;;;12.60;93.40;;;;;;5114970;28;20016;-77
2021/08/17 03:46:59;;;;;;;61.37;27.30;;;12.60;93.30;;;;;;5116361;28;20030;-78
2021/08/17 03:49:24;;;;;;;61.50;27.13;;;12.60;93.30;;;;;;5115501;28;20087;-76
2021/08/17 03:51:50;;;;;;;65.77;27.47;;;12.50;93.30;;;;;;5112814;28;20048;-76
2021/08/17 03:54:15;;;;;;;60.87;26.20;;;12.50;93.30;;;;;;5116381;28;20031;-77
2021/08/17 03:56:41;;;;;;;59.40;26.90;;;12.50;93.30;;;;;;5097232;28;20116;-77
2021/08/17 03:59:07;;;;;;;68.53;27.50;;;12.50;93.30;;;;;;5114869;28;20123;-76
2021/08/17 04:01:32;;;;;;;65.13;26.93;;;12.50;93.30;;;;;;5114476;28;20501;-81
2021/08/17 04:03:58;;;;;;;60.57;25.70;;;12.50;93.30;;;;;;5096472;28;20042;-77
2021/08/17 04:06:23;;;;;;;62.13;27.27;;;12.50;93.30;;;;;;5114475;28;20034;-77
2021/08/17 04:08:52;;;;;;;59.53;26.03;;;12.50;93.40;;;;;;5114502;28;20023;-78
2021/08/17 04:11:18;;;;;;;59.63;26.00;;;12.50;93.40;;;;;;5098190;28;20031;-78
2021/08/17 04:13:43;;;;;;;62.83;26.00;;;12.60;93.40;;;;;;5114942;28;20437;-77
2021/08/17 04:16:09;;;;;;;64.40;28.87;;;12.60;93.30;;;;;;5097382;28;20105;-77
2021/08/17 04:18:35;;;;;;;61.70;26.43;;;12.60;93.30;;;;;;5080313;28;20019;-84
2021/08/17 04:21:00;;;;;;;59.77;25.67;;;12.60;93.30;;;;;;5113974;28;20031;-77
2021/08/17 04:23:26;;;;;;;64.50;27.40;;;12.60;93.30;;;;;;5076782;28;20111;-78
2021/08/17 04:25:52;;;;;;;61.27;26.90;;;12.70;93.30;;;;;;5093650;28;20032;-76
2021/08/17 04:28:18;;;;;;;61.27;26.10;;;12.70;93.30;;;;;;5077213;28;20028;-77
2021/08/17 04:30:43;;;;;;;60.33;25.17;;;12.70;93.30;;;;;;5111416;28;20028;-77
2021/08/17 04:33:09;;;;;;;56.50;25.10;;;12.80;93.20;;;;;;5128398;27;20019;-77
2021/08/17 04:35:35;;;;;;;61.13;26.13;;;12.80;93.20;;;;;;5115292;28;20048;-77
2021/08/17 04:38:00;;;;;;;62.10;25.67;;;12.90;93.20;;;;;;5096997;28;20394;-77
2021/08/17 04:40:26;;;;;;;60.37;25.93;;;12.90;93.10;;;;;;5114322;28;20424;-78
2021/08/17 04:42:52;;;;;;;66.73;28.10;;;12.80;93.00;;;;;;5113197;28;20532;-78
2021/08/17 04:45:18;;;;;;;59.77;26.37;;;12.80;93.00;;;;;;5095631;28;20486;-75
2021/08/17 04:47:45;;;;;;;54.93;24.97;;;12.90;93.00;;;;;;5111865;28;20051;-79
2021/08/17 04:50:11;;;;;;;58.27;24.17;;;13.00;93.00;;;;;;5114031;28;20038;-76
2021/08/17 04:52:37;;;;;;;58.27;24.53;;;13.00;92.90;;;;;;5115182;28;20035;-79
2021/08/17 04:55:03;;;;;;;57.27;25.30;;;13.20;92.90;;;;;;5113725;28;20050;-80
2021/08/17 04:57:28;;;;;;;51.13;23.48;;;13.30;92.70;;;;;;5080169;28;20456;-78
2021/08/17 04:59:54;;;;;;;55.67;25.05;;;13.50;92.50;;;;;;5096409;28;20028;-77
2021/08/17 05:02:20;;;;;;;54.38;23.70;;;13.70;92.40;;;;;;5098268;28;20031;-78
2021/08/17 05:04:45;;;;;;;49.53;23.20;;;14.00;92.10;;;;;;5113738;28;20058;-78
2021/08/17 05:07:11;;;;;;;49.67;21.88;;;14.00;91.70;;;;;;5097679;28;20103;-76
2021/08/17 05:09:36;;;;;;;52.28;23.30;;;13.90;91.60;;;;;;5114760;28;20122;-78
2021/08/17 05:12:02;;;;;;;54.97;23.90;;;13.80;91.50;;;;;;5113931;28;20103;-76
2021/08/17 05:14:28;;;;;;;51.70;23.75;;;13.80;91.60;;;;;;5094053;28;20043;-76
2021/08/17 05:16:54;;;;;;;54.80;24.70;;;13.80;91.70;;;;;;5077501;28;20139;-76
2021/08/17 05:19:20;;;;;;;53.33;23.77;;;13.70;91.70;;;;;;5095542;28;20032;-77
2021/08/17 05:21:45;;;;;;;52.33;24.20;;;13.70;91.70;;;;;;5095280;28;20380;-81
2021/08/17 05:24:11;;;;;;;48.17;22.08;;;13.70;91.70;;;;;;5096147;28;20032;-78
2021/08/17 05:26:37;;;;;;;51.00;22.52;;;13.80;91.70;;;;;;5077981;28;20028;-76
2021/08/17 05:29:02;;;;;;;52.72;22.75;;;13.80;91.70;;;;;;5100011;28;20027;-76
2021/08/17 05:31:28;;;;;;;51.92;23.67;;;13.80;91.70;;;;;;5100782;28;20031;-76
2021/08/17 05:33:53;;;;;;;51.55;22.67;;;13.80;91.70;;;;;;5083571;28;20024;-78
2021/08/17 05:36:19;;;;;;;52.25;23.92;;;13.90;91.60;;;;;;5099230;28;20043;-76
2021/08/17 05:38:45;;;;;;;48.13;24.23;;;14.00;91.60;;;;;;5099175;28;20032;-86
2021/08/17 05:41:10;;;;;;;46.08;21.23;;;14.10;91.50;;;;;;5081446;28;20072;-77
2021/08/17 05:43:36;;;;;;;46.67;21.95;;;14.20;91.40;;;;;;5117335;28;20028;-77
2021/08/17 05:46:03;;;;;;;48.28;22.98;;;14.30;91.30;;;;;;5117369;28;20088;-77
2021/08/17 05:48:30;;;;;;;51.70;23.73;;;14.50;91.10;;;;;;5118295;28;20383;-78
2021/08/17 05:50:56;;;;;;;50.53;23.75;;;14.60;91.00;;;;;;5116763;28;20460;-76
2021/08/17 05:53:22;;;;;;;51.17;23.42;;;14.70;90.90;;;;;;5113946;28;20032;-78
2021/08/17 05:55:48;;;;;;;49.08;22.85;;;14.90;90.60;;;;;;5090302;28;20040;-83
2021/08/17 05:58:13;;;;;;;49.17;23.65;;;15.00;90.40;;;;;;5110175;28;20454;-80
2021/08/17 06:00:39;;;;;;;50.10;24.10;;;15.30;90.40;;;;;;5111573;28;20031;-78
2021/08/17 06:03:04;;;;;;;44.88;22.30;;;15.70;89.60;;;;;;5111987;28;20459;-78
2021/08/17 06:05:31;;;;;;;48.53;22.30;;;15.80;88.50;;;;;;5108714;28;20048;-77
2021/08/17 06:07:57;;;;;;;43.70;20.88;;;15.80;88.20;;;;;;5110793;28;20043;-78
2021/08/17 06:10:22;;;;;;;36.28;20.20;;;15.80;88.20;;;;;;5091937;28;20032;-78
2021/08/17 06:12:48;;;;;;;45.35;22.75;;;15.80;88.00;;;;;;5092303;28;20028;-83
2021/08/17 06:15:15;;;;;;;46.22;21.38;;;15.80;87.90;;;;;;5091549;28;20039;-77
2021/08/17 06:17:42;;;;;;;43.97;20.80;;;15.70;87.80;;;;;;5108703;28;20016;-82
2021/08/17 06:20:09;;;;;;;44.78;22.08;;;15.80;87.90;;;;;;5111807;28;20027;-77
2021/08/17 06:22:35;;;;;;;50.78;24.02;;;15.80;87.80;;;;;;5113005;28;20026;-78
2021/08/17 06:25:02;;;;;;;45.45;21.60;;;15.80;87.70;;;;;;5081260;28;20054;-77
2021/08/17 06:27:28;;;;;;;41.65;20.75;;;15.70;87.60;;;;;;5109559;28;20027;-77
2021/08/17 06:29:53;;;;;;;39.70;20.05;;;15.60;87.90;;;;;;5113113;28;20026;-84
2021/08/17 06:32:19;;;;;;;40.72;21.00;;;15.60;88.20;;;;;;5096065;28;20024;-77
2021/08/17 06:34:45;;;;;;;41.25;21.55;;;15.70;88.20;;;;;;5112215;28;20028;-76
2021/08/17 06:37:11;;;;;;;44.13;21.17;;;15.60;88.20;;;;;;5095102;28;20150;-78
2021/08/17 06:39:37;;;;;;;46.28;23.20;;;15.60;88.10;;;;;;5115290;28;20024;-78
2021/08/17 06:42:03;;;;;;;46.10;22.65;;;15.70;88.10;;;;;;5117348;28;20036;-77
2021/08/17 06:44:29;;;;;;;44.53;21.33;;;15.70;88.10;;;;;;5116670;28;20020;-77
2021/08/17 06:46:55;;;;;;;45.33;23.10;;;15.70;88.00;;;;;;5116260;28;20034;-84
2021/08/17 06:49:20;;;;;;;47.70;23.20;;;15.90;87.80;;;;;;5099701;28;20039;-77
2021/08/17 06:51:46;;;;;;;48.47;21.98;;;15.90;87.60;;;;;;5116677;28;20028;-78
2021/08/17 06:54:12;;;;;;;47.35;22.67;;;15.90;87.40;;;;;;5116190;28;20030;-79
2021/08/17 06:56:37;;;;;;;49.17;23.67;;;16.00;87.40;;;;;;5116231;28;20139;-78
2021/08/17 06:59:03;;;;;;;44.90;23.27;;;16.00;87.30;;;;;;5116653;28;20475;-79
2021/08/17 07:01:28;;;;;;;46.20;22.90;;;16.10;87.10;;;;;;5098662;28;20372;-78
2021/08/17 07:03:54;;;;;;;50.67;23.95;;;16.10;86.90;;;;;;5114712;28;20035;-78
2021/08/17 07:06:20;;;;;;;44.30;23.67;;;16.10;86.70;;;;;;5109300;28;20032;-82
2021/08/17 07:08:46;;;;;;;45.42;23.63;;;16.20;86.70;;;;;;5076565;28;20072;-78
2021/08/17 07:11:11;;;;;;;44.75;23.30;;;16.30;86.50;;;;;;5116589;28;20099;-80
2021/08/17 07:13:37;;;;;;;47.00;23.90;;;16.20;86.40;;;;;;5114499;28;20398;-79
2021/08/17 07:16:03;;;;;;;46.92;23.83;;;16.20;86.40;;;;;;5097917;28;20566;-77
2021/08/17 07:18:29;;;;;;;49.53;24.13;;;16.30;86.40;;;;;;5112703;28;20027;-79
2021/08/17 07:20:55;;;;;;;46.42;23.75;;;16.30;86.60;;;;;;5114395;28;20096;-79
2021/08/17 07:23:21;;;;;;;45.25;23.13;;;16.50;86.90;;;;;;5072879;28;20376;-78
2021/08/17 07:25:46;;;;;;;48.63;25.00;;;17.00;86.00;;;;;;5084283;28;20039;-78
2021/08/17 07:28:13;;;;;;;45.88;23.80;;;17.50;85.00;;;;;;5096907;28;20039;-79
2021/08/17 07:30:39;;;;;;;44.88;23.58;;;18.00;83.50;;;;;;5109653;28;20474;-80
2021/08/17 07:33:05;;;;;;;42.13;22.77;;;18.40;81.80;;;;;;5112641;28;20476;-80
2021/08/17 07:35:31;;;;;;;41.45;22.00;;;18.50;80.90;;;;;;5095317;28;20067;-79
2021/08/17 07:37:57;;;;;;;44.97;22.83;;;18.60;80.50;;;;;;5077146;28;20112;-79
2021/08/17 07:40:23;;;;;;;38.85;20.52;;;19.00;79.80;;;;;;5116796;27;20035;-79
2021/08/17 07:42:48;;;;;;;35.85;19.48;;;19.60;79.30;;;;;;5116474;28;20367;-77
2021/08/17 07:45:15;;;;;;;44.55;22.65;;;20.40;76.90;;;;;;5114850;28;20109;-81
2021/08/17 07:47:41;;;;;;;34.53;20.83;;;20.80;75.60;;;;;;5115350;28;20456;-79
2021/08/17 07:50:09;;;;;;;30.77;18.85;;;21.40;73.90;;;;;;5094645;28;20506;-78
2021/08/17 07:52:35;;;;;;;34.25;19.50;;;22.10;71.80;;;;;;5115366;28;20077;-79
2021/08/17 07:55:03;;;;;;;33.25;18.50;;;22.50;69.60;;;;;;5115358;28;20053;-80
2021/08/17 07:57:29;;;;;;;33.38;18.10;;;22.80;68.50;;;;;;5099119;28;20027;-78
2021/08/17 07:59:57;;;;;;;32.72;18.05;;;22.80;66.80;;;;;;5116326;28;20019;-79
2021/08/17 08:02:22;;;;;;;36.78;18.92;;;22.50;67.50;;;;;;5114871;28;20115;-79
2021/08/17 08:04:48;;;;;;;31.52;19.20;;;22.20;67.50;;;;;;5115950;28;20154;-79
2021/08/17 08:07:14;;;;;;;34.28;18.08;;;21.70;67.90;;;;;;5096771;28;20558;-80
2021/08/17 08:09:39;;;;;;;33.60;19.33;;;21.10;69.10;;;;;;5104437;28;20463;-80
2021/08/17 08:12:07;;;;;;;27.50;16.98;;;20.50;70.30;;;;;;5116265;28;20471;-84
2021/08/17 08:14:32;;;;;;;28.98;17.27;;;20.20;71.40;;;;;;5097775;28;20218;-81
2021/08/17 08:16:58;;;;;;;32.85;16.65;;;20.00;72.40;;;;;;5094537;28;20040;-80
2021/08/17 08:19:24;;;;;;;32.42;17.67;;;20.30;72.40;;;;;;5114436;28;20505;-79
2021/08/17 08:21:51;;;;;;;28.30;17.02;;;20.60;71.70;;;;;;5117689;28;20039;-79
2021/08/17 08:24:16;;;;;;;27.50;16.58;;;20.80;71.10;;;;;;5116879;28;20024;-79
2021/08/17 08:26:42;;;;;;;26.13;16.52;;;21.10;71.00;;;;;;5098272;28;20031;-78
2021/08/17 08:29:08;;;;;;;31.65;16.33;;;21.30;70.10;;;;;;5078540;28;20036;-84
2021/08/17 08:31:33;;;;;;;30.38;15.52;;;21.40;69.60;;;;;;5113990;28;20042;-80
2021/08/17 08:33:59;;;;;;;23.70;14.27;;;21.20;69.30;;;;;;5093393;28;20035;-79
2021/08/17 08:36:25;;;;;;;26.63;15.40;;;21.10;69.80;;;;;;5110387;28;20044;-79
2021/08/17 08:38:50;;;;;;;23.85;14.32;;;21.20;69.90;;;;;;5115085;28;20027;-80
2021/08/17 08:41:19;;;;;;;29.30;16.00;;;21.20;69.20;;;;;;5114384;28;20456;-80
2021/08/17 08:43:45;;;;;;;23.98;14.27;;;21.10;68.90;;;;;;5113511;28;20012;-79
2021/08/17 08:46:19;;;;;;;24.23;14.85;;;21.20;68.80;;;;;;5096282;28;20446;-79
2021/08/17 08:48:48;;;;;;;19.98;13.32;;;21.70;68.60;;;;;;5112525;28;20024;-80
2021/08/17 08:51:15;;;;;;;24.83;13.93;;;22.70;67.40;;;;;;5111622;28;20043;-79
2021/08/17 08:53:41;;;;;;;19.38;12.60;;;23.70;65.20;;;;;;5113975;28;20107;-81
2021/08/17 08:56:07;;;;;;;20.50;13.20;;;24.20;63.10;;;;;;5113536;28;20119;-80
2021/08/17 08:58:32;;;;;;;21.65;13.35;;;24.50;62.40;;;;;;5111358;28;20024;-81
2021/08/17 09:00:58;;;;;;;23.05;12.82;;;24.30;61.20;;;;;;5110684;28;20016;-80
2021/08/17 09:03:44;;;;;;;18.65;12.15;;;23.70;62.20;;;;;;5112139;28;20065;-79
2021/08/17 09:06:24;;;;;;;20.08;12.07;;;23.20;63.00;;;;;;5112023;28;20169;-80
2021/08/17 09:09:10;;;;;;;23.50;11.60;;;22.60;63.70;;;;;;5110306;28;20047;-78
2021/08/17 09:11:39;;;;;;;22.55;11.70;;;22.10;64.70;;;;;;5108575;28;20016;-79
2021/08/17 09:14:25;;;;;;;18.45;11.20;;;22.00;65.40;;;;;;5108366;28;20026;-82
2021/08/17 09:16:56;;;;;;;19.70;11.30;;;21.90;66.00;;;;;;5107717;28;20031;-82
2021/08/17 09:19:26;;;;;;;20.42;12.23;;;21.80;65.70;;;;;;5107302;28;20023;-79
2021/08/17 09:21:52;;;;;;;20.50;11.57;;;21.80;65.90;;;;;;5108512;28;20012;-79
2021/08/17 09:24:28;;;;;;;22.85;11.27;;;21.70;66.20;;;;;;5109672;28;20055;-82
2021/08/17 09:26:55;;;;;;;19.15;11.13;;;21.60;66.30;;;;;;5100817;28;20024;-79
2021/08/17 09:29:26;;;;;;;18.88;9.98;;;21.40;66.50;;;;;;5112160;28;20020;-80
2021/08/17 09:31:53;;;;;;;16.00;9.52;;;21.20;66.30;;;;;;5106740;28;20024;-80
2021/08/17 09:34:20;;;;;;;15.57;9.57;;;21.10;66.40;;;;;;5099648;28;20032;-81
2021/08/17 09:36:46;;;;;;;18.50;10.32;;;20.90;67.00;;;;;;5112661;28;20504;-79
2021/08/17 09:39:30;;;;;;;15.38;9.60;;;20.80;67.10;;;;;;5112462;28;20026;-81
2021/08/17 09:42:06;;;;;;;15.63;9.68;;;20.60;67.60;;;;;;5094670;28;20383;-80
2021/08/17 09:44:32;;;;;;;18.27;9.82;;;20.40;68.00;;;;;;5092528;28;20353;-79
2021/08/17 09:46:57;;;;;;;16.52;10.20;;;20.20;68.20;;;;;;5077535;28;20020;-79
2021/08/17 09:49:30;;;;;;;16.55;9.00;;;20.20;68.30;;;;;;5091541;28;20036;-80
2021/08/17 09:52:07;;;;;;;16.67;9.85;;;20.10;68.60;;;;;;5111850;28;20081;-79
2021/08/17 09:54:38;;;;;;;17.35;10.13;;;20.00;68.90;;;;;;5097116;28;20020;-79
2021/08/17 09:57:05;;;;;;;16.13;9.90;;;20.00;69.10;;;;;;5112152;28;20040;-80
2021/08/17 09:59:34;;;;;;;19.92;10.18;;;19.90;69.20;;;;;;5113171;28;20432;-79
2021/08/17 10:02:00;;;;;;;16.60;9.45;;;19.80;69.70;;;;;;5112253;28;20034;-80
2021/08/17 10:04:26;;;;;;;17.73;10.52;;;19.80;70.20;;;;;;5113048;28;20348;-80
2021/08/17 10:06:55;;;;;;;17.38;9.77;;;19.70;70.20;;;;;;5095622;28;20043;-79
2021/08/17 10:09:23;;;;;;;17.45;9.07;;;19.60;70.40;;;;;;5112889;28;20020;-81
2021/08/17 10:11:48;;;;;;;13.63;7.50;;;19.40;70.20;;;;;;5112391;28;20459;-78
2021/08/17 10:14:15;;;;;;;14.73;7.32;;;19.30;70.10;;;;;;5112818;28;20084;-78
2021/08/17 10:16:42;;;;;;;10.50;6.57;;;19.10;69.90;;;;;;5094244;28;20031;-77
2021/08/17 10:19:09;;;;;;;11.85;6.50;;;19.10;70.00;;;;;;5110976;28;20031;-78
2021/08/17 10:21:40;;;;;;;13.02;6.60;;;19.00;70.10;;;;;;5110295;28;20028;-79
2021/08/17 10:24:25;;;;;;;12.38;6.60;;;19.00;70.40;;;;;;5109997;28;20034;-79
2021/08/17 10:27:11;;;;;;;12.95;6.47;;;18.90;70.20;;;;;;5092875;28;20020;-80
2021/08/17 10:29:36;;;;;;;11.60;6.10;;;18.80;70.50;;;;;;5092095;28;20034;-78
2021/08/17 10:32:02;;;;;;;9.77;5.72;;;18.70;70.80;;;;;;5092326;28;20028;-79
2021/08/17 10:34:36;;;;;;;12.43;6.85;;;18.60;70.90;;;;;;5104831;28;20028;-82
2021/08/17 10:37:21;;;;;;;10.20;5.97;;;18.50;71.10;;;;;;5108353;28;20048;-80
2021/08/17 10:39:47;;;;;;;12.95;6.03;;;18.40;71.50;;;;;;5111027;28;20102;-80
2021/08/17 10:42:23;;;;;;;12.50;6.25;;;18.30;71.80;;;;;;5109734;28;20030;-79
2021/08/17 10:44:49;;;;;;;13.35;5.88;;;18.20;71.80;;;;;;5109113;28;20079;-79
2021/08/17 10:47:31;;;;;;;8.32;4.97;;;18.10;72.10;;;;;;5107603;28;20031;-80
2021/08/17 10:49:56;;;;;;;12.33;6.33;;;18.00;72.40;;;;;;5108932;28;20015;-79
2021/08/17 10:52:31;;;;;;;10.07;6.35;;;18.00;72.70;;;;;;5110876;28;20768;-78
2021/08/17 10:55:23;;;;;;;8.93;5.90;;;17.90;72.80;;;;;;5108584;28;20073;-81
2021/08/17 10:57:58;;;;;;;10.77;5.68;;;17.80;73.00;;;;;;5113183;28;20053;-77
2021/08/17 11:00:43;;;;;;;10.23;5.50;;;17.70;72.80;;;;;;5120337;28;20027;-79
2021/08/17 11:03:10;;;;;;;8.70;4.97;;;17.70;73.10;;;;;;5124582;28;20023;-82
2021/08/17 11:05:53;;;;;;;10.15;5.35;;;17.70;73.50;;;;;;5124213;28;20048;-79
2021/08/17 11:08:39;;;;;;;8.32;4.80;;;17.60;73.00;;;;;;5129904;28;20015;-78
2021/08/17 11:11:20;;;;;;;8.48;4.70;;;17.50;73.20;;;;;;5130429;28;20104;-78
2021/08/17 11:14:18;;;;;;;11.20;6.32;;;17.60;73.90;;;;;;5114540;28;20031;-82
2021/08/17 11:16:53;;;;;;;13.07;5.85;;;17.60;73.60;;;;;;5111107;28;20027;-79
2021/08/17 11:19:20;;;;;;;8.95;5.28;;;17.60;73.40;;;;;;5093205;28;20464;-78
2021/08/17 11:21:57;;;;;;;11.07;5.90;;;17.70;73.50;;;;;;5091684;28;20101;-77
2021/08/17 11:24:49;;;;;;;10.35;6.20;;;17.80;73.50;;;;;;5091913;28;20028;-78
2021/08/17 11:27:24;;;;;;;9.65;5.88;;;17.90;73.20;;;;;;5097061;28;20028;-78
2021/08/17 11:29:52;;;;;;;11.65;5.55;;;18.00;73.00;;;;;;5114291;28;20016;-78
2021/08/17 11:32:29;;;;;;;11.48;5.70;;;18.10;72.90;;;;;;5115722;28;20028;-81
2021/08/17 11:34:56;;;;;;;11.10;6.25;;;18.10;72.30;;;;;;5093938;28;20028;-78
2021/08/17 11:37:22;;;;;;;9.35;5.88;;;18.10;72.30;;;;;;5106475;28;20031;-82
2021/08/17 11:39:50;;;;;;;11.35;5.25;;;18.00;72.20;;;;;;5115084;28;20027;-80
2021/08/17 11:42:20;;;;;;;11.70;5.97;;;18.00;72.50;;;;;;5114066;28;20037;-80
2021/08/17 11:44:56;;;;;;;10.73;6.47;;;18.00;72.70;;;;;;5114137;28;20104;-79
2021/08/17 11:47:22;;;;;;;10.30;5.80;;;18.00;72.80;;;;;;5114861;28;20054;-79
2021/08/17 11:49:51;;;;;;;9.15;5.72;;;18.00;73.00;;;;;;5114495;28;20482;-79
2021/08/17 11:52:24;;;;;;;15.15;6.20;;;18.10;73.00;;;;;;5115017;28;20522;-79
2021/08/17 11:55:10;;;;;;;9.38;5.88;;;18.20;73.00;;;;;;5097799;28;20081;-78
2021/08/17 11:57:42;;;;;;;11.70;6.75;;;18.30;72.80;;;;;;5116086;28;20023;-80
2021/08/17 12:00:15;;;;;;;9.90;6.45;;;18.30;72.50;;;;;;5114763;28;20016;-78
2021/08/17 12:03:10;;;;;;;8.75;5.80;;;18.40;72.30;;;;;;5114970;28;20022;-79
2021/08/17 12:05:38;;;;;;;10.68;6.70;;;18.40;72.40;;;;;;5113836;28;20087;-84
2021/08/17 12:08:06;;;;;;;11.05;6.55;;;18.40;72.80;;;;;;5116273;28;20110;-78
2021/08/17 12:10:36;;;;;;;11.38;6.55;;;18.40;72.60;;;;;;5115328;28;20138;-80
2021/08/17 12:13:09;;;;;;;9.48;6.13;;;18.30;73.00;;;;;;5114954;28;20019;-79
2021/08/17 12:15:54;;;;;;;10.45;6.50;;;18.20;73.20;;;;;;5116509;27;20471;-79
2021/08/17 12:18:25;;;;;;;11.75;6.30;;;18.20;73.60;;;;;;5117059;28;20027;-79
2021/08/17 12:20:52;;;;;;;11.00;6.28;;;18.20;73.60;;;;;;5115702;28;20023;-79
2021/08/17 12:23:39;;;;;;;10.02;6.38;;;18.20;73.30;;;;;;5115447;28;20020;-79
2021/08/17 12:26:26;;;;;;;12.30;6.03;;;18.20;73.50;;;;;;5117278;28;20085;-79
2021/08/17 12:28:53;;;;;;;8.48;5.75;;;18.30;73.40;;;;;;5116371;28;20481;-79
2021/08/17 12:31:31;;;;;;;11.00;6.20;;;18.30;73.40;;;;;;5114951;28;20047;-80
2021/08/17 12:34:07;;;;;;;11.88;6.68;;;18.40;73.70;;;;;;5114956;28;20409;-79